RJCC Airport Information

Runway Information
Runway 01L Length 9840 ft width 200 ft
Elevation 62 ft Threshold 0 ft Heading 353
Runway 19R Length 9840 ft Width 200 ft
Elevation 82 ft Threshold 0 ft Heading 173
Runway 01R Length 9840 ft width 200 ft
Elevation 57 ft Threshold 0 ft Heading 353
Runway 19L Length 9840 ft Width 200 ft
Elevation 77 ft Threshold 0 ft Heading 173
Airport Frequencies
Type APP Name CHITOSE AP Frequency 120.1 MHZ
Type ATIS Name ATIS Frequency 128.6 MHZ
Type CLD Name CHITOSE CL Frequency 121.9 MHZ
Type DEP Name CHITOSE DE Frequency 124.7 MHZ
Type GND Name CHITOSE GN Frequency 121.6 MHZ
Type TCA Name TCA Frequency 127.7 MHZ
Type TWR Name CHITOSE TW Frequency 118.8 MHZ
Airport Navaids
Type VOR-DME Name Mukawa Frequency 116400 KHZ
Type NDB Name Naganuma Frequency 377 KHZ
Airport Weather Information & NOTAM
ADDS - METARS form results

(0409 UTC 15 November 2018)
Data provider http://aviationweather.gov/metar/data/
 
METAR text: RJCC 150400Z 35011KT 9999 -SHRA FEW015 SCT030 BKN050 08/03 Q1020 RMK 1ST015 3CU030 5CU050 A3015
Conditions at: RJCC (CHITOSE (JASDF/C, JP) observed 0400 UTC 15 November 2018
Temperature: 8.0°C (46°F)
Dewpoint: 3.0°C (37°F) [RH = 71%]
Pressure (altimeter): 30.12 inches Hg (1020.0 mb)
Winds: from the N (350 degrees) at 13 MPH (11 knots; 5.7 m/s)
Visibility: 6 or more miles (10+ km)
Ceiling: 5000 feet AGL
Clouds: few clouds at 1500 feet AGL
scattered clouds at 3000 feet AGL
broken clouds at 5000 feet AGL
Weather: -SHRA  (light rain showers)

METAR text: RJCC 150330Z 34008KT 320V020 9999 -SHRA FEW020 SCT025 BKN050 08/03 Q1021 RMK 1CU020 4CU025 6CU050 A3015
Conditions at: RJCC (CHITOSE (JASDF/C, JP) observed 0330 UTC 15 November 2018
Temperature: 8.0°C (46°F)
Dewpoint: 3.0°C (37°F) [RH = 71%]
Pressure (altimeter): 30.15 inches Hg (1021.0 mb)
Winds: from the NNW (340 degrees) at 9 MPH (8 knots; 4.1 m/s)
Visibility: 6 or more miles (10+ km)
Ceiling: 5000 feet AGL
Clouds: few clouds at 2000 feet AGL
scattered clouds at 2500 feet AGL
broken clouds at 5000 feet AGL
Weather: -SHRA  (light rain showers)

Forecast for: RJCC (CHITOSE (JASDF/C, JP)
Text: TAF RJCC 142305Z 1500/1606 35009KT 9999 FEW020 BKN040
Forecast period: 0000 to 1000 UTC 15 November 2018
Forecast type: FROM: standard forecast or significant change
Winds: from the N (350 degrees) at 10 MPH (9 knots; 4.6 m/s)
Visibility: 6 or more miles 10+ km)
Ceiling: 4000 feet AGL
Clouds: few clouds at 2000 feet AGL
broken clouds at 4000 feet AGL
Weather: no significant weather forecast for this period
Text: BECMG 1510/1512 15005KT
Forecast period: 1000 UTC 15 November 2018 to 0600 UTC 16 November 2018
Forecast type: BECOMING: Conditions expected to become as follows by 1200 UTC 15 November 2018
Winds: from the SSE (150 degrees) at 6 MPH (5 knots; 2.6 m/s)
Visibility: 6 or more miles 10+ km)
Ceiling: 4000 feet AGL
Clouds: few clouds at 2000 feet AGL
broken clouds at 4000 feet AGL
Weather: no significant weather forecast for this period